sensor_id;sensor_type;location;lat;lon;timestamp;P1;durP1;ratioP1;P2;durP2;ratioP2
27907;SDS011;15249;48.092;11.484;2022-08-19T00:00:38;11.5;;;10.4;;
27907;SDS011;15249;48.092;11.484;2022-08-19T00:01:43;11.5;;;10.4;;
27907;SDS011;15249;48.092;11.484;2022-08-19T00:02:45;11.5;;;10.4;;
27907;SDS011;15249;48.092;11.484;2022-08-19T00:03:46;11.5;;;10.4;;
27907;SDS011;15249;48.092;11.484;2022-08-19T00:04:52;11.65;;;10.35;;
27907;SDS011;15249;48.092;11.484;2022-08-19T00:05:52;11.65;;;10.35;;
27907;SDS011;15249;48.092;11.484;2022-08-19T00:06:53;11.65;;;10.35;;
27907;SDS011;15249;48.092;11.484;2022-08-19T00:07:54;11.65;;;10.35;;
27907;SDS011;15249;48.092;11.484;2022-08-19T00:08:56;11.65;;;10.35;;
27907;SDS011;15249;48.092;11.484;2022-08-19T00:09:58;11.65;;;10.35;;
27907;SDS011;15249;48.092;11.484;2022-08-19T00:10:58;11.65;;;10.35;;
27907;SDS011;15249;48.092;11.484;2022-08-19T00:11:59;11.65;;;10.35;;
27907;SDS011;15249;48.092;11.484;2022-08-19T00:13:00;11.65;;;10.35;;
27907;SDS011;15249;48.092;11.484;2022-08-19T00:14:00;11.65;;;10.35;;
27907;SDS011;15249;48.092;11.484;2022-08-19T00:15:01;11.65;;;10.35;;
27907;SDS011;15249;48.092;11.484;2022-08-19T00:16:02;12.45;;;11.2;;
27907;SDS011;15249;48.092;11.484;2022-08-19T00:17:03;12.45;;;11.2;;
27907;SDS011;15249;48.092;11.484;2022-08-19T00:18:04;12.45;;;11.2;;
27907;SDS011;15249;48.092;11.484;2022-08-19T00:19:05;12.45;;;11.2;;
27907;SDS011;15249;48.092;11.484;2022-08-19T00:20:06;12.45;;;11.2;;
27907;SDS011;15249;48.092;11.484;2022-08-19T00:21:08;12.45;;;11.2;;
27907;SDS011;15249;48.092;11.484;2022-08-19T00:22:09;12.45;;;11.2;;
27907;SDS011;15249;48.092;11.484;2022-08-19T00:23:09;12.45;;;11.2;;
27907;SDS011;15249;48.092;11.484;2022-08-19T00:24:10;12.45;;;11.2;;
27907;SDS011;15249;48.092;11.484;2022-08-19T00:25:13;12.45;;;11.2;;
27907;SDS011;15249;48.092;11.484;2022-08-19T00:26:14;14.95;;;11.45;;
27907;SDS011;15249;48.092;11.484;2022-08-19T00:27:15;14.95;;;11.45;;
27907;SDS011;15249;48.092;11.484;2022-08-19T00:28:15;14.95;;;11.45;;
27907;SDS011;15249;48.092;11.484;2022-08-19T00:29:17;14.95;;;11.45;;
27907;SDS011;15249;48.092;11.484;2022-08-19T00:30:19;14.95;;;11.45;;
27907;SDS011;15249;48.092;11.484;2022-08-19T00:31:20;14.95;;;11.45;;
27907;SDS011;15249;48.092;11.484;2022-08-19T00:32:22;14.95;;;11.45;;
27907;SDS011;15249;48.092;11.484;2022-08-19T00:33:22;14.95;;;11.45;;
27907;SDS011;15249;48.092;11.484;2022-08-19T00:34:23;14.95;;;11.45;;
27907;SDS011;15249;48.092;11.484;2022-08-19T00:35:25;14.95;;;11.45;;
27907;SDS011;15249;48.092;11.484;2022-08-19T00:36:25;14.95;;;11.45;;
27907;SDS011;15249;48.092;11.484;2022-08-19T00:37:26;13.75;;;11.4;;
27907;SDS011;15249;48.092;11.484;2022-08-19T00:38:27;13.75;;;11.4;;
27907;SDS011;15249;48.092;11.484;2022-08-19T00:39:28;13.75;;;11.4;;
27907;SDS011;15249;48.092;11.484;2022-08-19T00:40:30;13.75;;;11.4;;
27907;SDS011;15249;48.092;11.484;2022-08-19T00:41:31;13.75;;;11.4;;
27907;SDS011;15249;48.092;11.484;2022-08-19T00:42:32;13.75;;;11.4;;
27907;SDS011;15249;48.092;11.484;2022-08-19T00:43:33;13.75;;;11.4;;
27907;SDS011;15249;48.092;11.484;2022-08-19T00:44:34;13.75;;;11.4;;
27907;SDS011;15249;48.092;11.484;2022-08-19T00:45:35;13.75;;;11.4;;
27907;SDS011;15249;48.092;11.484;2022-08-19T00:46:37;13.75;;;11.4;;
27907;SDS011;15249;48.092;11.484;2022-08-19T00:47:40;12.9;;;11.65;;
27907;SDS011;15249;48.092;11.484;2022-08-19T00:48:40;12.9;;;11.65;;
27907;SDS011;15249;48.092;11.484;2022-08-19T00:49:42;12.9;;;11.65;;
27907;SDS011;15249;48.092;11.484;2022-08-19T00:50:48;12.9;;;11.65;;
27907;SDS011;15249;48.092;11.484;2022-08-19T00:51:51;12.9;;;11.65;;
27907;SDS011;15249;48.092;11.484;2022-08-19T00:52:54;12.9;;;11.65;;
27907;SDS011;15249;48.092;11.484;2022-08-19T00:53:56;12.9;;;11.65;;
27907;SDS011;15249;48.092;11.484;2022-08-19T00:54:58;12.9;;;11.65;;
27907;SDS011;15249;48.092;11.484;2022-08-19T00:56:00;12.9;;;11.65;;
27907;SDS011;15249;48.092;11.484;2022-08-19T00:57:03;12.9;;;11.65;;
27907;SDS011;15249;48.092;11.484;2022-08-19T00:58:07;16.5;;;13.55;;
27907;SDS011;15249;48.092;11.484;2022-08-19T00:59:12;16.5;;;13.55;;
27907;SDS011;15249;48.092;11.484;2022-08-19T01:00:15;16.5;;;13.55;;
27907;SDS011;15249;48.092;11.484;2022-08-19T01:01:18;16.5;;;13.55;;
27907;SDS011;15249;48.092;11.484;2022-08-19T01:02:19;16.5;;;13.55;;
27907;SDS011;15249;48.092;11.484;2022-08-19T01:03:20;16.5;;;13.55;;
27907;SDS011;15249;48.092;11.484;2022-08-19T01:04:21;16.5;;;13.55;;
27907;SDS011;15249;48.092;11.484;2022-08-19T01:05:23;16.5;;;13.55;;
27907;SDS011;15249;48.092;11.484;2022-08-19T01:06:25;16.5;;;13.55;;
27907;SDS011;15249;48.092;11.484;2022-08-19T01:07:26;16.5;;;13.55;;
27907;SDS011;15249;48.092;11.484;2022-08-19T01:08:27;16.5;;;13.55;;
27907;SDS011;15249;48.092;11.484;2022-08-19T01:09:28;14.95;;;13.45;;
27907;SDS011;15249;48.092;11.484;2022-08-19T01:10:31;14.95;;;13.45;;
27907;SDS011;15249;48.092;11.484;2022-08-19T01:11:34;14.95;;;13.45;;
27907;SDS011;15249;48.092;11.484;2022-08-19T01:12:38;14.95;;;13.45;;
27907;SDS011;15249;48.092;11.484;2022-08-19T01:13:39;14.95;;;13.45;;
27907;SDS011;15249;48.092;11.484;2022-08-19T01:14:40;14.95;;;13.45;;
27907;SDS011;15249;48.092;11.484;2022-08-19T01:15:42;14.95;;;13.45;;
27907;SDS011;15249;48.092;11.484;2022-08-19T01:16:54;14.95;;;13.45;;
27907;SDS011;15249;48.092;11.484;2022-08-19T01:17:55;14.95;;;13.45;;
27907;SDS011;15249;48.092;11.484;2022-08-19T01:18:59;14.95;;;13.45;;
27907;SDS011;15249;48.092;11.484;2022-08-19T01:20:02;16.05;;;14.4;;
27907;SDS011;15249;48.092;11.484;2022-08-19T01:21:05;16.05;;;14.4;;
27907;SDS011;15249;48.092;11.484;2022-08-19T01:22:12;16.05;;;14.4;;
27907;SDS011;15249;48.092;11.484;2022-08-19T01:23:19;16.05;;;14.4;;
27907;SDS011;15249;48.092;11.484;2022-08-19T01:24:20;16.05;;;14.4;;
27907;SDS011;15249;48.092;11.484;2022-08-19T01:25:22;16.05;;;14.4;;
27907;SDS011;15249;48.092;11.484;2022-08-19T01:26:27;16.05;;;14.4;;
27907;SDS011;15249;48.092;11.484;2022-08-19T01:27:36;16.05;;;14.4;;
27907;SDS011;15249;48.092;11.484;2022-08-19T01:28:38;16.05;;;14.4;;
27907;SDS011;15249;48.092;11.484;2022-08-19T01:29:41;16.05;;;14.4;;
27907;SDS011;15249;48.092;11.484;2022-08-19T01:30:43;15.4;;;13.8;;
27907;SDS011;15249;48.092;11.484;2022-08-19T01:31:45;15.4;;;13.8;;
27907;SDS011;15249;48.092;11.484;2022-08-19T01:32:45;15.4;;;13.8;;
27907;SDS011;15249;48.092;11.484;2022-08-19T01:33:46;15.4;;;13.8;;
27907;SDS011;15249;48.092;11.484;2022-08-19T01:34:47;15.4;;;13.8;;
27907;SDS011;15249;48.092;11.484;2022-08-19T01:35:51;15.4;;;13.8;;
27907;SDS011;15249;48.092;11.484;2022-08-19T01:36:51;15.4;;;13.8;;
27907;SDS011;15249;48.092;11.484;2022-08-19T01:37:53;15.4;;;13.8;;
27907;SDS011;15249;48.092;11.484;2022-08-19T01:38:55;15.4;;;13.8;;
27907;SDS011;15249;48.092;11.484;2022-08-19T01:39:57;15.4;;;13.8;;
27907;SDS011;15249;48.092;11.484;2022-08-19T01:40:58;16.05;;;14.2;;
27907;SDS011;15249;48.092;11.484;2022-08-19T01:42:03;16.05;;;14.2;;
27907;SDS011;15249;48.092;11.484;2022-08-19T01:43:04;16.05;;;14.2;;
27907;SDS011;15249;48.092;11.484;2022-08-19T01:44:07;16.05;;;14.2;;
27907;SDS011;15249;48.092;11.484;2022-08-19T01:45:09;16.05;;;14.2;;
27907;SDS011;15249;48.092;11.484;2022-08-19T01:46:10;16.05;;;14.2;;
27907;SDS011;15249;48.092;11.484;2022-08-19T01:47:11;16.05;;;14.2;;
27907;SDS011;15249;48.092;11.484;2022-08-19T01:48:12;16.05;;;14.2;;
27907;SDS011;15249;48.092;11.484;2022-08-19T01:49:14;16.05;;;14.2;;
27907;SDS011;15249;48.092;11.484;2022-08-19T01:50:15;16.05;;;14.2;;
27907;SDS011;15249;48.092;11.484;2022-08-19T01:51:17;15;;;13.5;;
27907;SDS011;15249;48.092;11.484;2022-08-19T01:52:17;15;;;13.5;;
27907;SDS011;15249;48.092;11.484;2022-08-19T01:53:18;15;;;13.5;;
27907;SDS011;15249;48.092;11.484;2022-08-19T01:54:19;15;;;13.5;;
27907;SDS011;15249;48.092;11.484;2022-08-19T01:55:23;15;;;13.5;;
27907;SDS011;15249;48.092;11.484;2022-08-19T01:56:24;15;;;13.5;;
27907;SDS011;15249;48.092;11.484;2022-08-19T01:57:26;15;;;13.5;;
27907;SDS011;15249;48.092;11.484;2022-08-19T01:58:28;15;;;13.5;;
27907;SDS011;15249;48.092;11.484;2022-08-19T01:59:32;15;;;13.5;;
27907;SDS011;15249;48.092;11.484;2022-08-19T02:00:33;15;;;13.5;;
27907;SDS011;15249;48.092;11.484;2022-08-19T02:01:34;15;;;13.5;;
27907;SDS011;15249;48.092;11.484;2022-08-19T02:02:35;14.3;;;12.7;;
27907;SDS011;15249;48.092;11.484;2022-08-19T02:03:35;14.3;;;12.7;;
27907;SDS011;15249;48.092;11.484;2022-08-19T02:04:38;14.3;;;12.7;;
27907;SDS011;15249;48.092;11.484;2022-08-19T02:05:39;14.3;;;12.7;;
27907;SDS011;15249;48.092;11.484;2022-08-19T02:06:40;14.3;;;12.7;;
27907;SDS011;15249;48.092;11.484;2022-08-19T02:07:41;14.3;;;12.7;;
27907;SDS011;15249;48.092;11.484;2022-08-19T02:08:42;14.3;;;12.7;;
27907;SDS011;15249;48.092;11.484;2022-08-19T02:09:43;14.3;;;12.7;;
27907;SDS011;15249;48.092;11.484;2022-08-19T02:10:43;14.3;;;12.7;;
27907;SDS011;15249;48.092;11.484;2022-08-19T02:11:44;14.3;;;12.7;;
27907;SDS011;15249;48.092;11.484;2022-08-19T02:12:45;14.25;;;12.75;;
27907;SDS011;15249;48.092;11.484;2022-08-19T02:13:45;14.25;;;12.75;;
27907;SDS011;15249;48.092;11.484;2022-08-19T02:14:46;14.25;;;12.75;;
27907;SDS011;15249;48.092;11.484;2022-08-19T02:15:47;14.25;;;12.75;;
27907;SDS011;15249;48.092;11.484;2022-08-19T02:16:48;14.25;;;12.75;;
27907;SDS011;15249;48.092;11.484;2022-08-19T02:17:48;14.25;;;12.75;;
27907;SDS011;15249;48.092;11.484;2022-08-19T02:18:50;14.25;;;12.75;;
27907;SDS011;15249;48.092;11.484;2022-08-19T02:19:50;14.25;;;12.75;;
27907;SDS011;15249;48.092;11.484;2022-08-19T02:20:51;14.25;;;12.75;;
27907;SDS011;15249;48.092;11.484;2022-08-19T02:21:52;14.25;;;12.75;;
27907;SDS011;15249;48.092;11.484;2022-08-19T02:22:53;14.25;;;12.75;;
27907;SDS011;15249;48.092;11.484;2022-08-19T02:23:53;13;;;11.7;;
27907;SDS011;15249;48.092;11.484;2022-08-19T02:24:55;13;;;11.7;;
27907;SDS011;15249;48.092;11.484;2022-08-19T02:25:55;13;;;11.7;;
27907;SDS011;15249;48.092;11.484;2022-08-19T02:26:58;13;;;11.7;;
27907;SDS011;15249;48.092;11.484;2022-08-19T02:27:59;13;;;11.7;;
27907;SDS011;15249;48.092;11.484;2022-08-19T02:29:00;13;;;11.7;;
27907;SDS011;15249;48.092;11.484;2022-08-19T02:30:01;13;;;11.7;;
27907;SDS011;15249;48.092;11.484;2022-08-19T02:31:08;13;;;11.7;;
27907;SDS011;15249;48.092;11.484;2022-08-19T02:32:09;13;;;11.7;;
27907;SDS011;15249;48.092;11.484;2022-08-19T02:33:10;13;;;11.7;;
27907;SDS011;15249;48.092;11.484;2022-08-19T02:34:10;12.2;;;11.1;;
27907;SDS011;15249;48.092;11.484;2022-08-19T02:35:11;12.2;;;11.1;;
27907;SDS011;15249;48.092;11.484;2022-08-19T02:36:13;12.2;;;11.1;;
27907;SDS011;15249;48.092;11.484;2022-08-19T02:38:25;12.2;;;11.1;;
27907;SDS011;15249;48.092;11.484;2022-08-19T02:39:26;12.2;;;11.1;;
27907;SDS011;15249;48.092;11.484;2022-08-19T02:40:27;12.2;;;11.1;;
27907;SDS011;15249;48.092;11.484;2022-08-19T02:41:28;12.2;;;11.1;;
27907;SDS011;15249;48.092;11.484;2022-08-19T02:42:31;12.2;;;11.1;;
27907;SDS011;15249;48.092;11.484;2022-08-19T02:43:32;12.2;;;11.1;;
27907;SDS011;15249;48.092;11.484;2022-08-19T02:44:33;12.2;;;11.1;;
27907;SDS011;15249;48.092;11.484;2022-08-19T02:45:34;11.45;;;10.25;;
27907;SDS011;15249;48.092;11.484;2022-08-19T02:46:36;11.45;;;10.25;;
27907;SDS011;15249;48.092;11.484;2022-08-19T02:47:36;11.45;;;10.25;;
27907;SDS011;15249;48.092;11.484;2022-08-19T02:48:37;11.45;;;10.25;;
27907;SDS011;15249;48.092;11.484;2022-08-19T02:49:37;11.45;;;10.25;;
27907;SDS011;15249;48.092;11.484;2022-08-19T02:50:38;11.45;;;10.25;;
27907;SDS011;15249;48.092;11.484;2022-08-19T02:51:40;11.45;;;10.25;;
27907;SDS011;15249;48.092;11.484;2022-08-19T02:52:43;11.45;;;10.25;;
27907;SDS011;15249;48.092;11.484;2022-08-19T02:53:44;11.45;;;10.25;;
27907;SDS011;15249;48.092;11.484;2022-08-19T02:54:45;11.45;;;10.25;;
27907;SDS011;15249;48.092;11.484;2022-08-19T02:55:46;12.3;;;10.85;;
27907;SDS011;15249;48.092;11.484;2022-08-19T02:56:47;12.3;;;10.85;;
27907;SDS011;15249;48.092;11.484;2022-08-19T02:57:47;12.3;;;10.85;;
27907;SDS011;15249;48.092;11.484;2022-08-19T02:58:48;12.3;;;10.85;;
27907;SDS011;15249;48.092;11.484;2022-08-19T02:59:49;12.3;;;10.85;;
27907;SDS011;15249;48.092;11.484;2022-08-19T03:00:51;12.3;;;10.85;;
27907;SDS011;15249;48.092;11.484;2022-08-19T03:01:54;12.3;;;10.85;;
27907;SDS011;15249;48.092;11.484;2022-08-19T03:02:54;12.3;;;10.85;;
27907;SDS011;15249;48.092;11.484;2022-08-19T03:03:56;12.3;;;10.85;;
27907;SDS011;15249;48.092;11.484;2022-08-19T03:04:57;12.3;;;10.85;;
27907;SDS011;15249;48.092;11.484;2022-08-19T03:06:06;11.65;;;10.45;;
27907;SDS011;15249;48.092;11.484;2022-08-19T03:07:09;11.65;;;10.45;;
27907;SDS011;15249;48.092;11.484;2022-08-19T03:08:13;11.65;;;10.45;;
27907;SDS011;15249;48.092;11.484;2022-08-19T03:09:14;11.65;;;10.45;;
27907;SDS011;15249;48.092;11.484;2022-08-19T03:10:15;11.65;;;10.45;;
27907;SDS011;15249;48.092;11.484;2022-08-19T03:11:17;11.65;;;10.45;;
27907;SDS011;15249;48.092;11.484;2022-08-19T03:12:20;11.65;;;10.45;;
27907;SDS011;15249;48.092;11.484;2022-08-19T03:13:20;11.65;;;10.45;;
27907;SDS011;15249;48.092;11.484;2022-08-19T03:14:21;11.65;;;10.45;;
27907;SDS011;15249;48.092;11.484;2022-08-19T03:15:22;11.65;;;10.45;;
27907;SDS011;15249;48.092;11.484;2022-08-19T03:16:23;11.65;;;10.45;;
27907;SDS011;15249;48.092;11.484;2022-08-19T03:17:25;11.5;;;10.35;;
27907;SDS011;15249;48.092;11.484;2022-08-19T03:18:26;11.5;;;10.35;;
27907;SDS011;15249;48.092;11.484;2022-08-19T03:19:27;11.5;;;10.35;;
27907;SDS011;15249;48.092;11.484;2022-08-19T03:20:27;11.5;;;10.35;;
27907;SDS011;15249;48.092;11.484;2022-08-19T03:21:29;11.5;;;10.35;;
27907;SDS011;15249;48.092;11.484;2022-08-19T03:22:31;11.5;;;10.35;;
27907;SDS011;15249;48.092;11.484;2022-08-19T03:23:32;11.5;;;10.35;;
27907;SDS011;15249;48.092;11.484;2022-08-19T03:24:32;11.5;;;10.35;;
27907;SDS011;15249;48.092;11.484;2022-08-19T03:25:36;11.5;;;10.35;;
27907;SDS011;15249;48.092;11.484;2022-08-19T03:26:38;11.5;;;10.35;;
27907;SDS011;15249;48.092;11.484;2022-08-19T03:27:40;12;;;10.85;;
27907;SDS011;15249;48.092;11.484;2022-08-19T03:28:41;12;;;10.85;;
27907;SDS011;15249;48.092;11.484;2022-08-19T03:29:42;12;;;10.85;;
27907;SDS011;15249;48.092;11.484;2022-08-19T03:30:53;12;;;10.85;;
27907;SDS011;15249;48.092;11.484;2022-08-19T03:31:56;12;;;10.85;;
27907;SDS011;15249;48.092;11.484;2022-08-19T03:32:57;12;;;10.85;;
27907;SDS011;15249;48.092;11.484;2022-08-19T03:33:57;12;;;10.85;;
27907;SDS011;15249;48.092;11.484;2022-08-19T03:34:58;12;;;10.85;;
27907;SDS011;15249;48.092;11.484;2022-08-19T03:36:01;12;;;10.85;;
27907;SDS011;15249;48.092;11.484;2022-08-19T03:37:05;12;;;10.85;;
27907;SDS011;15249;48.092;11.484;2022-08-19T03:38:08;13.25;;;11.95;;
27907;SDS011;15249;48.092;11.484;2022-08-19T03:39:09;13.25;;;11.95;;
27907;SDS011;15249;48.092;11.484;2022-08-19T03:40:10;13.25;;;11.95;;
27907;SDS011;15249;48.092;11.484;2022-08-19T03:41:11;13.25;;;11.95;;
27907;SDS011;15249;48.092;11.484;2022-08-19T03:42:15;13.25;;;11.95;;
27907;SDS011;15249;48.092;11.484;2022-08-19T03:43:19;13.25;;;11.95;;
27907;SDS011;15249;48.092;11.484;2022-08-19T03:44:21;13.25;;;11.95;;
27907;SDS011;15249;48.092;11.484;2022-08-19T03:45:23;13.25;;;11.95;;
27907;SDS011;15249;48.092;11.484;2022-08-19T03:46:25;13.25;;;11.95;;
27907;SDS011;15249;48.092;11.484;2022-08-19T03:47:27;13.25;;;11.95;;
27907;SDS011;15249;48.092;11.484;2022-08-19T03:48:27;13.25;;;11.95;;
27907;SDS011;15249;48.092;11.484;2022-08-19T03:49:29;13.25;;;11.85;;
27907;SDS011;15249;48.092;11.484;2022-08-19T03:50:31;13.25;;;11.85;;
27907;SDS011;15249;48.092;11.484;2022-08-19T03:51:32;13.25;;;11.85;;
27907;SDS011;15249;48.092;11.484;2022-08-19T03:52:34;13.25;;;11.85;;
27907;SDS011;15249;48.092;11.484;2022-08-19T03:53:35;13.25;;;11.85;;
27907;SDS011;15249;48.092;11.484;2022-08-19T03:54:35;13.25;;;11.85;;
27907;SDS011;15249;48.092;11.484;2022-08-19T03:55:38;13.25;;;11.85;;
27907;SDS011;15249;48.092;11.484;2022-08-19T03:56:40;13.25;;;11.85;;
27907;SDS011;15249;48.092;11.484;2022-08-19T03:57:43;13.25;;;11.85;;
27907;SDS011;15249;48.092;11.484;2022-08-19T03:58:44;13.25;;;11.85;;
27907;SDS011;15249;48.092;11.484;2022-08-19T03:59:45;12.2;;;11;;
27907;SDS011;15249;48.092;11.484;2022-08-19T04:00:45;12.2;;;11;;
27907;SDS011;15249;48.092;11.484;2022-08-19T04:01:46;12.2;;;11;;
27907;SDS011;15249;48.092;11.484;2022-08-19T04:02:47;12.2;;;11;;
27907;SDS011;15249;48.092;11.484;2022-08-19T04:03:47;12.2;;;11;;
27907;SDS011;15249;48.092;11.484;2022-08-19T04:04:49;12.2;;;11;;
27907;SDS011;15249;48.092;11.484;2022-08-19T04:05:53;12.2;;;11;;
27907;SDS011;15249;48.092;11.484;2022-08-19T04:06:54;12.2;;;11;;
27907;SDS011;15249;48.092;11.484;2022-08-19T04:07:58;12.2;;;11;;
27907;SDS011;15249;48.092;11.484;2022-08-19T04:09:00;12.2;;;11;;
27907;SDS011;15249;48.092;11.484;2022-08-19T04:10:03;13.3;;;11.7;;
27907;SDS011;15249;48.092;11.484;2022-08-19T04:11:06;13.3;;;11.7;;
27907;SDS011;15249;48.092;11.484;2022-08-19T04:12:07;13.3;;;11.7;;
27907;SDS011;15249;48.092;11.484;2022-08-19T04:13:09;13.3;;;11.7;;
27907;SDS011;15249;48.092;11.484;2022-08-19T04:14:10;13.3;;;11.7;;
27907;SDS011;15249;48.092;11.484;2022-08-19T04:15:12;13.3;;;11.7;;
27907;SDS011;15249;48.092;11.484;2022-08-19T04:16:12;13.3;;;11.7;;
27907;SDS011;15249;48.092;11.484;2022-08-19T04:17:13;13.3;;;11.7;;
27907;SDS011;15249;48.092;11.484;2022-08-19T04:18:14;13.3;;;11.7;;
27907;SDS011;15249;48.092;11.484;2022-08-19T04:19:15;13.3;;;11.7;;
27907;SDS011;15249;48.092;11.484;2022-08-19T04:20:17;13.3;;;11.7;;
27907;SDS011;15249;48.092;11.484;2022-08-19T04:21:18;13.7;;;12.05;;
27907;SDS011;15249;48.092;11.484;2022-08-19T04:22:20;13.7;;;12.05;;
27907;SDS011;15249;48.092;11.484;2022-08-19T04:23:20;13.7;;;12.05;;
27907;SDS011;15249;48.092;11.484;2022-08-19T04:24:21;13.7;;;12.05;;
27907;SDS011;15249;48.092;11.484;2022-08-19T04:25:22;13.7;;;12.05;;
27907;SDS011;15249;48.092;11.484;2022-08-19T04:26:24;13.7;;;12.05;;
27907;SDS011;15249;48.092;11.484;2022-08-19T04:27:26;13.7;;;12.05;;
27907;SDS011;15249;48.092;11.484;2022-08-19T04:28:27;13.7;;;12.05;;
27907;SDS011;15249;48.092;11.484;2022-08-19T04:29:27;13.7;;;12.05;;
27907;SDS011;15249;48.092;11.484;2022-08-19T04:30:28;13.7;;;12.05;;
27907;SDS011;15249;48.092;11.484;2022-08-19T04:31:30;12.85;;;11.65;;
27907;SDS011;15249;48.092;11.484;2022-08-19T04:32:32;12.85;;;11.65;;
27907;SDS011;15249;48.092;11.484;2022-08-19T04:33:32;12.85;;;11.65;;
27907;SDS011;15249;48.092;11.484;2022-08-19T04:34:33;12.85;;;11.65;;
27907;SDS011;15249;48.092;11.484;2022-08-19T04:35:34;12.85;;;11.65;;
27907;SDS011;15249;48.092;11.484;2022-08-19T04:36:36;12.85;;;11.65;;
27907;SDS011;15249;48.092;11.484;2022-08-19T04:37:38;12.85;;;11.65;;
27907;SDS011;15249;48.092;11.484;2022-08-19T04:38:38;12.85;;;11.65;;
27907;SDS011;15249;48.092;11.484;2022-08-19T04:43:50;12.95;;;11.75;;
27907;SDS011;15249;48.092;11.484;2022-08-19T04:44:51;12.95;;;11.75;;
27907;SDS011;15249;48.092;11.484;2022-08-19T04:45:51;12.95;;;11.75;;
27907;SDS011;15249;48.092;11.484;2022-08-19T04:46:52;12.95;;;11.75;;
27907;SDS011;15249;48.092;11.484;2022-08-19T04:47:54;12.95;;;11.75;;
27907;SDS011;15249;48.092;11.484;2022-08-19T04:48:56;12.95;;;11.75;;
27907;SDS011;15249;48.092;11.484;2022-08-19T04:49:57;12.95;;;11.75;;
27907;SDS011;15249;48.092;11.484;2022-08-19T04:50:58;12.95;;;11.75;;
27907;SDS011;15249;48.092;11.484;2022-08-19T04:51:59;12.95;;;11.75;;
27907;SDS011;15249;48.092;11.484;2022-08-19T04:52:59;11.8;;;10.65;;
27907;SDS011;15249;48.092;11.484;2022-08-19T04:54:01;11.8;;;10.65;;
27907;SDS011;15249;48.092;11.484;2022-08-19T04:55:02;11.8;;;10.65;;
27907;SDS011;15249;48.092;11.484;2022-08-19T04:56:04;11.8;;;10.65;;
27907;SDS011;15249;48.092;11.484;2022-08-19T04:57:08;11.8;;;10.65;;
27907;SDS011;15249;48.092;11.484;2022-08-19T04:58:09;11.8;;;10.65;;
27907;SDS011;15249;48.092;11.484;2022-08-19T04:59:10;11.8;;;10.65;;
27907;SDS011;15249;48.092;11.484;2022-08-19T05:00:11;11.8;;;10.65;;
27907;SDS011;15249;48.092;11.484;2022-08-19T05:01:13;11.8;;;10.65;;
27907;SDS011;15249;48.092;11.484;2022-08-19T05:02:17;11.8;;;10.65;;
27907;SDS011;15249;48.092;11.484;2022-08-19T05:03:17;11.8;;;10.65;;
27907;SDS011;15249;48.092;11.484;2022-08-19T05:04:19;11.45;;;10.25;;
27907;SDS011;15249;48.092;11.484;2022-08-19T05:05:20;11.45;;;10.25;;
27907;SDS011;15249;48.092;11.484;2022-08-19T05:06:21;11.45;;;10.25;;
27907;SDS011;15249;48.092;11.484;2022-08-19T05:07:22;11.45;;;10.25;;
27907;SDS011;15249;48.092;11.484;2022-08-19T05:08:23;11.45;;;10.25;;
27907;SDS011;15249;48.092;11.484;2022-08-19T05:09:23;11.45;;;10.25;;
27907;SDS011;15249;48.092;11.484;2022-08-19T05:10:24;11.45;;;10.25;;
27907;SDS011;15249;48.092;11.484;2022-08-19T05:11:26;11.45;;;10.25;;
27907;SDS011;15249;48.092;11.484;2022-08-19T05:12:28;11.45;;;10.25;;
27907;SDS011;15249;48.092;11.484;2022-08-19T05:13:29;11.45;;;10.25;;
27907;SDS011;15249;48.092;11.484;2022-08-19T05:14:29;11.2;;;10.1;;
27907;SDS011;15249;48.092;11.484;2022-08-19T05:15:30;11.2;;;10.1;;
27907;SDS011;15249;48.092;11.484;2022-08-19T05:16:31;11.2;;;10.1;;
27907;SDS011;15249;48.092;11.484;2022-08-19T05:17:31;11.2;;;10.1;;
27907;SDS011;15249;48.092;11.484;2022-08-19T05:22:46;11.2;;;10.1;;
27907;SDS011;15249;48.092;11.484;2022-08-19T05:23:47;11.2;;;10.1;;
27907;SDS011;15249;48.092;11.484;2022-08-19T05:24:47;11.75;;;10.55;;
27907;SDS011;15249;48.092;11.484;2022-08-19T05:25:48;11.75;;;10.55;;
27907;SDS011;15249;48.092;11.484;2022-08-19T05:26:50;11.75;;;10.55;;
27907;SDS011;15249;48.092;11.484;2022-08-19T05:27:51;11.75;;;10.55;;
27907;SDS011;15249;48.092;11.484;2022-08-19T05:28:52;11.75;;;10.55;;
27907;SDS011;15249;48.092;11.484;2022-08-19T05:29:53;11.75;;;10.55;;
27907;SDS011;15249;48.092;11.484;2022-08-19T05:30:55;11.75;;;10.55;;
27907;SDS011;15249;48.092;11.484;2022-08-19T05:31:55;11.75;;;10.55;;
27907;SDS011;15249;48.092;11.484;2022-08-19T05:32:56;11.75;;;10.55;;
27907;SDS011;15249;48.092;11.484;2022-08-19T05:33:58;11.75;;;10.55;;
27907;SDS011;15249;48.092;11.484;2022-08-19T05:34:59;11.75;;;10.55;;
27907;SDS011;15249;48.092;11.484;2022-08-19T05:36:00;11.75;;;10.55;;
27907;SDS011;15249;48.092;11.484;2022-08-19T05:37:02;11.75;;;10.55;;
27907;SDS011;15249;48.092;11.484;2022-08-19T05:38:04;11.75;;;10.55;;
27907;SDS011;15249;48.092;11.484;2022-08-19T05:39:05;11.75;;;10.55;;
27907;SDS011;15249;48.092;11.484;2022-08-19T05:40:07;11.75;;;10.55;;
27907;SDS011;15249;48.092;11.484;2022-08-19T05:41:09;11.75;;;10.55;;
27907;SDS011;15249;48.092;11.484;2022-08-19T05:42:11;11.75;;;10.55;;
27907;SDS011;15249;48.092;11.484;2022-08-19T05:43:15;11.75;;;10.55;;
27907;SDS011;15249;48.092;11.484;2022-08-19T05:44:17;11.75;;;10.55;;
27907;SDS011;15249;48.092;11.484;2022-08-19T05:45:17;11.75;;;10.55;;
27907;SDS011;15249;48.092;11.484;2022-08-19T05:46:18;12.45;;;11.2;;
27907;SDS011;15249;48.092;11.484;2022-08-19T05:47:20;12.45;;;11.2;;
27907;SDS011;15249;48.092;11.484;2022-08-19T05:48:20;12.45;;;11.2;;
27907;SDS011;15249;48.092;11.484;2022-08-19T05:49:22;12.45;;;11.2;;
27907;SDS011;15249;48.092;11.484;2022-08-19T05:50:23;12.45;;;11.2;;
27907;SDS011;15249;48.092;11.484;2022-08-19T05:51:23;12.45;;;11.2;;
27907;SDS011;15249;48.092;11.484;2022-08-19T05:52:25;12.45;;;11.2;;
27907;SDS011;15249;48.092;11.484;2022-08-19T05:53:26;12.45;;;11.2;;
27907;SDS011;15249;48.092;11.484;2022-08-19T05:54:27;12.45;;;11.2;;
27907;SDS011;15249;48.092;11.484;2022-08-19T05:55:27;12.45;;;11.2;;
27907;SDS011;15249;48.092;11.484;2022-08-19T05:56:28;12.45;;;11.2;;
27907;SDS011;15249;48.092;11.484;2022-08-19T05:57:28;12.45;;;11.2;;
27907;SDS011;15249;48.092;11.484;2022-08-19T05:58:30;12.45;;;11.2;;
27907;SDS011;15249;48.092;11.484;2022-08-19T05:59:31;12.45;;;11.2;;
27907;SDS011;15249;48.092;11.484;2022-08-19T06:00:32;12.45;;;11.2;;
27907;SDS011;15249;48.092;11.484;2022-08-19T06:01:32;12.45;;;11.2;;
27907;SDS011;15249;48.092;11.484;2022-08-19T06:02:33;12.45;;;11.2;;
27907;SDS011;15249;48.092;11.484;2022-08-19T06:03:33;12.45;;;11.2;;
27907;SDS011;15249;48.092;11.484;2022-08-19T06:04:35;12.45;;;11.2;;
27907;SDS011;15249;48.092;11.484;2022-08-19T06:05:35;12.45;;;11.2;;
27907;SDS011;15249;48.092;11.484;2022-08-19T06:06:36;12.45;;;11.2;;
27907;SDS011;15249;48.092;11.484;2022-08-19T06:07:37;14.15;;;12.65;;
27907;SDS011;15249;48.092;11.484;2022-08-19T06:08:39;14.15;;;12.65;;
27907;SDS011;15249;48.092;11.484;2022-08-19T06:09:40;14.15;;;12.65;;
27907;SDS011;15249;48.092;11.484;2022-08-19T06:10:41;14.15;;;12.65;;